Search for airport 
image banner adimage banner ad
image banner ad

DGTK - Takoradi

Located in Takoradi, Ghana

ICAO - DGTK, IATA - TKD

Data provided by Airmate  

General information

Coordinates: N4°53'46" W1°46'29"
Elevation is 22 feet MSL.
 
Rated:
View ratings: [VIEW]


View others Airports in Western Region

Operational data

Open for public use
Current time UTC:
Current local time:
Weather
METAR: DGTK 201800Z 23008KT 9999 BKN011 BKN080 26/25 Q1013 NOSIG
TAF: TAF DGTK 201100Z 2012/2118 23010KT 9999 SCT014 PROB30 TEMPO 2012/2014 6000 -RA BKN010 TEMPO 2021/2024 00000KT BECMG 2105/2107 VRB04KT 5000 BR/DZ BKN010
View NOTAMs / SUP AIP / TFR affecting this airport [VIEW]
Communications frequencies: [VIEW]

Runways:

RWY identifierQFULength (ft)Width (ft)SurfaceLDA (ft)
0330°5745148
21210°5745148

Airport contact information

Address: Takoradi Ghana

Satellite view of DGTK